Time;durP1;ratioP1;P1;durP2;ratioP2;P2;SDS_P1;SDS_P2;PMS_P1;PMS_P2;Temp;Humidity;BMP_temperature;BMP_pressure;BME280_temperature;BME280_humidity;BME280_pressure;Samples;Min_cycle;Max_cycle;Signal;HPM_P1;HPM_P2
2021/07/06 00:01:54;;;;;;;;;;;18.00;99.90;;;;;;5083188;28;20453;-67
2021/07/06 00:04:22;;;;;;;;;;;18.00;99.90;;;;;;5086378;28;19939;-68
2021/07/06 00:06:49;;;;;;;;;;;18.00;99.90;;;;;;5087989;28;20027;-67
2021/07/06 00:09:15;;;;;;;;;;;18.00;99.90;;;;;;5086545;28;19993;-67
2021/07/06 00:11:42;;;;;;;;;;;18.10;99.90;;;;;;5085647;28;19987;-67
2021/07/06 00:14:09;;;;;;;;;;;18.10;99.90;;;;;;5086447;28;19982;-67
2021/07/06 00:16:36;;;;;;;;;;;18.10;99.90;;;;;;5088245;28;19995;-67
2021/07/06 00:19:02;;;;;;;;;;;18.10;99.90;;;;;;5121308;27;19946;-68
2021/07/06 00:21:29;;;;;;;;;;;18.10;99.90;;;;;;5089387;28;20312;-67
2021/07/06 00:23:56;;;;;;;;;;;18.10;99.90;;;;;;5082103;28;19964;-67
2021/07/06 00:26:22;;;;;;;;;;;18.10;99.90;;;;;;5082459;28;20408;-67
2021/07/06 00:28:49;;;;;;;;;;;18.10;99.90;;;;;;5085683;28;20053;-67
2021/07/06 00:31:15;;;;;;;;;;;18.10;99.90;;;;;;5087016;28;20507;-67
2021/07/06 00:33:42;;;;;;;;;;;18.10;99.90;;;;;;5108276;27;19951;-67
2021/07/06 00:36:09;;;;;;;;;;;18.10;99.90;;;;;;5087050;28;19985;-67
2021/07/06 00:38:36;;;;;;;;;;;18.10;99.90;;;;;;5074079;28;20302;-68
2021/07/06 00:41:03;;;;;;;;;;;18.10;99.90;;;;;;5081891;28;19992;-67
2021/07/06 00:43:29;;;;;;;;;;;18.10;99.90;;;;;;5076874;28;19953;-67
2021/07/06 00:45:57;;;;;;;;;;;18.10;99.90;;;;;;5087380;28;20308;-67
2021/07/06 00:48:27;;;;;;;;;;;18.10;99.90;;;;;;5081634;28;19981;-68
2021/07/06 00:50:54;;;;;;;;;;;18.10;99.90;;;;;;5086233;28;19958;-68
2021/07/06 00:53:21;;;;;;;;;;;18.10;99.90;;;;;;5084969;28;20000;-68
2021/07/06 00:55:49;;;;;;;;;;;18.10;99.90;;;;;;5088546;28;19943;-67
2021/07/06 00:58:17;;;;;;;;;;;18.20;99.90;;;;;;5080175;28;20454;-68
2021/07/06 01:00:43;;;;;;;;;;;18.10;99.90;;;;;;5088497;28;20431;-68
2021/07/06 01:03:10;;;;;;;;;;;18.10;99.90;;;;;;5086342;28;20041;-68
2021/07/06 01:05:38;;;;;;;;;;;18.20;99.90;;;;;;5086581;28;19969;-67
2021/07/06 01:08:08;;;;;;;;;;;18.20;99.90;;;;;;5091301;28;20038;-68
2021/07/06 01:10:35;;;;;;;;;;;18.20;99.90;;;;;;5084056;28;20743;-68
2021/07/06 01:13:03;;;;;;;;;;;18.20;99.90;;;;;;5088861;28;19989;-68
2021/07/06 01:15:30;;;;;;;;;;;18.20;99.90;;;;;;5080712;28;20076;-67
2021/07/06 01:18:07;;;;;;;;;;;18.20;99.90;;;;;;5078617;28;20354;-68
2021/07/06 01:20:36;;;;;;;;;;;18.20;99.90;;;;;;5098747;28;19986;-67
2021/07/06 01:23:04;;;;;;;;;;;18.20;99.90;;;;;;5085207;28;19971;-68
2021/07/06 01:25:32;;;;;;;;;;;18.30;99.90;;;;;;5086154;28;19979;-67
2021/07/06 01:27:59;;;;;;;;;;;18.30;99.90;;;;;;5084261;28;20440;-68
2021/07/06 01:30:26;;;;;;;;;;;18.30;99.90;;;;;;5087610;28;19924;-67
2021/07/06 01:32:52;;;;;;;;;;;18.30;99.90;;;;;;5128550;27;19969;-67
2021/07/06 01:35:19;;;;;;;;;;;18.30;99.90;;;;;;5096840;28;19944;-67
2021/07/06 01:37:50;;;;;;;;;;;18.30;99.90;;;;;;5076566;28;19980;-67
2021/07/06 01:40:17;;;;;;;;;;;18.30;99.90;;;;;;5077411;28;20357;-67
2021/07/06 01:42:44;;;;;;;;;;;18.30;99.90;;;;;;5089096;28;19982;-68
2021/07/06 01:45:13;;;;;;;;;;;18.30;99.90;;;;;;5085336;28;20504;-67
2021/07/06 01:47:40;;;;;;;;;;;18.30;99.90;;;;;;5083327;28;19966;-67
2021/07/06 01:50:08;;;;;;;;;;;18.30;99.90;;;;;;5085770;28;20014;-68
2021/07/06 01:52:39;;;;;;;;;;;18.30;99.90;;;;;;5084429;28;19984;-68
2021/07/06 01:55:07;;;;;;;;;;;18.30;99.90;;;;;;5092447;28;19963;-68
2021/07/06 01:57:34;;;;;;;;;;;18.30;99.90;;;;;;5091218;28;20009;-68
2021/07/06 02:00:03;;;;;;;;;;;18.30;99.90;;;;;;5089683;28;19994;-67
2021/07/06 02:02:30;;;;;;;;;;;18.30;99.90;;;;;;5091663;28;20399;-68
2021/07/06 02:04:57;;;;;;;;;;;18.30;99.90;;;;;;5088625;28;19931;-68
2021/07/06 02:07:24;;;;;;;;;;;18.30;99.90;;;;;;5089363;28;20465;-68
2021/07/06 02:09:51;;;;;;;;;;;18.30;99.90;;;;;;5091150;28;19994;-67
2021/07/06 02:12:17;;;;;;;;;;;18.30;99.90;;;;;;5086972;28;20417;-68
2021/07/06 02:14:44;;;;;;;;;;;18.30;99.90;;;;;;5091154;28;20014;-68
2021/07/06 02:17:12;;;;;;;;;;;18.30;99.90;;;;;;5088783;28;19982;-68
2021/07/06 02:19:38;;;;;;;;;;;18.30;99.90;;;;;;5105190;28;20472;-68
2021/07/06 02:22:05;;;;;;;;;;;18.30;99.90;;;;;;5089703;28;19979;-68
2021/07/06 02:24:32;;;;;;;;;;;18.30;99.90;;;;;;5092802;28;20001;-68
2021/07/06 02:26:59;;;;;;;;;;;18.30;99.90;;;;;;5091589;28;20511;-68
2021/07/06 02:29:25;;;;;;;;;;;18.30;99.90;;;;;;5093059;28;20383;-68
2021/07/06 02:31:52;;;;;;;;;;;18.30;99.90;;;;;;5088848;28;20415;-68
2021/07/06 02:34:19;;;;;;;;;;;18.30;99.90;;;;;;5091754;28;19924;-67
2021/07/06 02:36:45;;;;;;;;;;;18.30;99.90;;;;;;5090956;28;20524;-67
2021/07/06 02:39:12;;;;;;;;;;;18.30;99.90;;;;;;5077465;28;19947;-67
2021/07/06 02:41:38;;;;;;;;;;;18.30;99.90;;;;;;5088796;28;19985;-68
2021/07/06 02:44:05;;;;;;;;;;;18.30;99.90;;;;;;5085345;28;19971;-68
2021/07/06 02:46:32;;;;;;;;;;;18.30;99.90;;;;;;5087678;28;20045;-68
2021/07/06 02:48:58;;;;;;;;;;;18.30;99.90;;;;;;5087682;28;19928;-68
2021/07/06 02:51:25;;;;;;;;;;;18.30;99.90;;;;;;5088214;28;19991;-68
2021/07/06 02:53:52;;;;;;;;;;;18.30;99.90;;;;;;5090881;28;20039;-68
2021/07/06 02:56:19;;;;;;;;;;;18.30;99.90;;;;;;5088160;28;19973;-68
2021/07/06 02:58:45;;;;;;;;;;;18.30;99.90;;;;;;5088587;28;19997;-68
2021/07/06 03:01:12;;;;;;;;;;;18.30;99.90;;;;;;5088606;28;20043;-67
2021/07/06 03:03:39;;;;;;;;;;;18.20;99.90;;;;;;5086194;28;20321;-67
2021/07/06 03:06:05;;;;;;;;;;;18.20;99.90;;;;;;5090590;28;19939;-68
2021/07/06 03:08:33;;;;;;;;;;;18.20;99.90;;;;;;5088937;28;20723;-68
2021/07/06 03:11:00;;;;;;;;;;;18.20;99.90;;;;;;5089656;28;19955;-69
2021/07/06 03:13:26;;;;;;;;;;;18.20;99.90;;;;;;5088893;28;19992;-68
2021/07/06 03:15:53;;;;;;;;;;;18.20;99.90;;;;;;5091304;28;19943;-68
2021/07/06 03:18:20;;;;;;;;;;;18.20;99.90;;;;;;5089703;28;19942;-68
2021/07/06 03:20:48;;;;;;;;;;;18.20;99.90;;;;;;5091996;28;19938;-68
2021/07/06 03:23:18;;;;;;;;;;;18.20;99.90;;;;;;5089615;28;20049;-68
2021/07/06 03:25:45;;;;;;;;;;;18.20;99.90;;;;;;5089993;28;20249;-68
2021/07/06 03:28:12;;;;;;;;;;;18.20;99.90;;;;;;5090728;28;19951;-68
2021/07/06 03:30:39;;;;;;;;;;;18.20;99.90;;;;;;5086450;28;19935;-68
2021/07/06 03:33:07;;;;;;;;;;;18.20;99.90;;;;;;5088095;28;20386;-68
2021/07/06 03:35:34;;;;;;;;;;;18.10;99.90;;;;;;5086183;28;19943;-68
2021/07/06 03:38:01;;;;;;;;;;;18.10;99.90;;;;;;5086476;28;21528;-68
2021/07/06 03:40:28;;;;;;;;;;;18.10;99.90;;;;;;5081843;28;20000;-68
2021/07/06 03:42:55;;;;;;;;;;;18.10;99.90;;;;;;5089190;28;19980;-68
2021/07/06 03:45:23;;;;;;;;;;;18.20;99.90;;;;;;5089446;28;19950;-68
2021/07/06 03:47:50;;;;;;;;;;;18.10;99.90;;;;;;5081361;28;20029;-69
2021/07/06 03:50:19;;;;;;;;;;;18.10;99.90;;;;;;5084469;28;20000;-69
2021/07/06 03:52:49;;;;;;;;;;;18.10;99.90;;;;;;5080661;28;20045;-68
2021/07/06 03:55:16;;;;;;;;;;;18.10;99.90;;;;;;5084246;28;20373;-68
2021/07/06 03:57:44;;;;;;;;;;;18.20;99.90;;;;;;5073831;28;19950;-68
2021/07/06 04:00:12;;;;;;;;;;;18.20;99.90;;;;;;5084292;28;20399;-68
2021/07/06 04:02:39;;;;;;;;;;;18.20;99.90;;;;;;5087353;28;19942;-69
2021/07/06 04:05:07;;;;;;;;;;;18.20;99.90;;;;;;5085215;28;19939;-69
2021/07/06 04:07:34;;;;;;;;;;;18.20;99.90;;;;;;5088544;28;19975;-68
2021/07/06 04:10:02;;;;;;;;;;;18.20;99.90;;;;;;5087007;28;19925;-68
2021/07/06 04:12:28;;;;;;;;;;;18.20;99.90;;;;;;5089376;28;20048;-68
2021/07/06 04:14:55;;;;;;;;;;;18.20;99.90;;;;;;5088500;28;19949;-68
2021/07/06 04:17:22;;;;;;;;;;;18.30;99.90;;;;;;5087332;28;19973;-69
2021/07/06 04:19:48;;;;;;;;;;;18.30;99.90;;;;;;5090394;28;20344;-68
2021/07/06 04:22:15;;;;;;;;;;;18.30;99.90;;;;;;5088162;28;19986;-67
2021/07/06 04:24:42;;;;;;;;;;;18.40;99.90;;;;;;5088860;28;19928;-68
2021/07/06 04:27:09;;;;;;;;;;;18.40;99.90;;;;;;5083733;28;19940;-68
2021/07/06 04:29:35;;;;;;;;;;;18.40;99.90;;;;;;5088811;28;20413;-68
2021/07/06 04:32:02;;;;;;;;;;;18.50;99.90;;;;;;5083781;28;20093;-68
2021/07/06 04:34:29;;;;;;;;;;;18.50;99.90;;;;;;5086087;28;20043;-68
2021/07/06 04:36:55;;;;;;;;;;;18.50;99.90;;;;;;5078117;28;19951;-68
2021/07/06 04:39:22;;;;;;;;;;;18.50;99.90;;;;;;5079273;28;20008;-68
2021/07/06 04:41:49;;;;;;;;;;;18.50;99.90;;;;;;5085434;28;20359;-68
2021/07/06 04:44:15;;;;;;;;;;;18.50;99.90;;;;;;5087907;28;20033;-68
2021/07/06 04:46:42;;;;;;;;;;;18.50;99.90;;;;;;5089001;28;19999;-68
2021/07/06 04:49:09;;;;;;;;;;;18.50;99.90;;;;;;5088791;28;19938;-68
2021/07/06 04:51:36;;;;;;;;;;;18.60;99.90;;;;;;5085876;28;20409;-68
2021/07/06 04:54:03;;;;;;;;;;;18.60;99.90;;;;;;5085678;28;19976;-68
2021/07/06 04:56:29;;;;;;;;;;;18.60;99.90;;;;;;5089146;28;19962;-68
2021/07/06 04:58:56;;;;;;;;;;;18.60;99.90;;;;;;5084237;28;19997;-68
2021/07/06 05:01:23;;;;;;;;;;;18.60;99.90;;;;;;5085614;28;19973;-68
2021/07/06 05:03:51;;;;;;;;;;;18.60;99.90;;;;;;5064322;28;19957;-68
2021/07/06 05:06:18;;;;;;;;;;;18.60;99.90;;;;;;5078625;28;20961;-68
2021/07/06 05:08:45;;;;;;;;;;;18.60;99.90;;;;;;5081102;28;19924;-68
2021/07/06 05:11:12;;;;;;;;;;;18.60;99.90;;;;;;5077794;28;19932;-68
2021/07/06 05:13:39;;;;;;;;;;;18.60;99.90;;;;;;5080018;28;20066;-68
2021/07/06 05:16:06;;;;;;;;;;;18.60;99.90;;;;;;5080008;28;19962;-69
2021/07/06 05:18:33;;;;;;;;;;;18.70;99.90;;;;;;5079346;28;19959;-68
2021/07/06 05:21:00;;;;;;;;;;;18.70;99.90;;;;;;5087190;28;20011;-69
2021/07/06 05:23:26;;;;;;;;;;;18.70;99.90;;;;;;5079300;28;19943;-68
2021/07/06 05:25:53;;;;;;;;;;;18.80;99.90;;;;;;5082775;28;19999;-68
2021/07/06 05:28:20;;;;;;;;;;;18.80;99.90;;;;;;5079661;28;20357;-68
2021/07/06 05:30:46;;;;;;;;;;;18.80;99.90;;;;;;5082855;28;19974;-68
2021/07/06 05:33:13;;;;;;;;;;;18.80;99.90;;;;;;5072833;28;19960;-68
2021/07/06 05:35:40;;;;;;;;;;;18.80;99.90;;;;;;5083923;28;19954;-69
2021/07/06 05:38:06;;;;;;;;;;;18.80;99.90;;;;;;5069531;28;19987;-68
2021/07/06 05:40:39;;;;;;;;;;;18.90;99.90;;;;;;5079481;28;20399;-69
2021/07/06 05:43:06;;;;;;;;;;;18.90;99.90;;;;;;5078945;28;20044;-69
2021/07/06 05:45:34;;;;;;;;;;;18.90;99.90;;;;;;5087264;28;20000;-68
2021/07/06 05:48:01;;;;;;;;;;;19.00;99.90;;;;;;5078843;28;20264;-68
2021/07/06 05:50:27;;;;;;;;;;;19.00;99.90;;;;;;5054214;28;20260;-69
2021/07/06 05:52:54;;;;;;;;;;;19.00;99.90;;;;;;5058030;28;19994;-68
2021/07/06 05:55:21;;;;;;;;;;;19.10;99.90;;;;;;5058043;28;20019;-68
2021/07/06 05:57:47;;;;;;;;;;;19.10;99.90;;;;;;5065727;28;19974;-69
2021/07/06 06:00:15;;;;;;;;;;;19.10;99.90;;;;;;5061588;28;19924;-68
2021/07/06 06:02:46;;;;;;;;;;;19.10;99.90;;;;;;5059367;28;19936;-68
2021/07/06 06:05:13;;;;;;;;;;;19.10;99.90;;;;;;5058005;28;20054;-69
2021/07/06 06:07:40;;;;;;;;;;;19.10;99.90;;;;;;5059035;28;19928;-68
2021/07/06 06:10:08;;;;;;;;;;;19.20;99.90;;;;;;5058288;28;19932;-68
2021/07/06 06:12:36;;;;;;;;;;;19.10;99.90;;;;;;5067450;28;19928;-68
2021/07/06 06:15:03;;;;;;;;;;;19.10;99.90;;;;;;5066983;28;19979;-69
2021/07/06 06:17:30;;;;;;;;;;;19.20;99.90;;;;;;5059354;28;19969;-68
2021/07/06 06:19:57;;;;;;;;;;;19.20;99.90;;;;;;5038855;28;20027;-68
2021/07/06 06:22:24;;;;;;;;;;;19.20;99.90;;;;;;5061958;28;20141;-68
2021/07/06 06:25:06;;;;;;;;;;;19.20;99.90;;;;;;5053583;28;19954;-68
2021/07/06 06:27:33;;;;;;;;;;;19.20;99.90;;;;;;5062033;28;20404;-69
2021/07/06 06:29:59;;;;;;;;;;;19.20;99.90;;;;;;5064890;28;20383;-69
2021/07/06 06:32:26;;;;;;;;;;;19.30;99.90;;;;;;5064978;28;19989;-68
2021/07/06 06:34:53;;;;;;;;;;;19.30;99.90;;;;;;5061070;28;19941;-69
2021/07/06 06:37:19;;;;;;;;;;;19.30;99.90;;;;;;5062194;28;19967;-68
2021/07/06 06:39:46;;;;;;;;;;;19.30;99.90;;;;;;5066607;28;19960;-68
2021/07/06 06:42:13;;;;;;;;;;;19.40;99.90;;;;;;5071325;28;20320;-68
2021/07/06 06:44:39;;;;;;;;;;;19.40;99.90;;;;;;5070826;28;19925;-68
2021/07/06 06:47:06;;;;;;;;;;;19.40;99.90;;;;;;5067769;28;19928;-68
2021/07/06 06:49:37;;;;;;;;;;;19.40;99.90;;;;;;5073270;28;19959;-69
2021/07/06 06:52:04;;;;;;;;;;;19.40;99.90;;;;;;5066170;28;19972;-68
2021/07/06 06:54:32;;;;;;;;;;;19.40;99.90;;;;;;5068712;28;20398;-69
2021/07/06 06:56:59;;;;;;;;;;;19.50;99.90;;;;;;5068813;28;20011;-69
2021/07/06 06:59:25;;;;;;;;;;;19.50;99.90;;;;;;5072136;28;19983;-69
2021/07/06 07:02:16;;;;;;;;;;;19.50;99.90;;;;;;5068389;28;19975;-68
2021/07/06 07:04:39;;;;;;;;;;;19.50;99.90;;;;;;5067996;28;19939;-69
2021/07/06 07:07:06;;;;;;;;;;;19.50;99.90;;;;;;5069142;28;20001;-69
2021/07/06 07:09:32;;;;;;;;;;;19.50;99.90;;;;;;5066163;28;20156;-69
2021/07/06 07:11:59;;;;;;;;;;;19.50;99.90;;;;;;5097423;27;19967;-69
2021/07/06 07:14:26;;;;;;;;;;;19.50;99.90;;;;;;5065451;28;20011;-69
2021/07/06 07:16:52;;;;;;;;;;;19.50;99.90;;;;;;5064101;28;20057;-69
2021/07/06 07:19:19;;;;;;;;;;;19.50;99.90;;;;;;5064963;28;20374;-67
2021/07/06 07:21:59;;;;;;;;;;;19.50;99.90;;;;;;5064691;28;19924;-68
2021/07/06 07:24:26;;;;;;;;;;;19.50;99.90;;;;;;5068080;28;20407;-67
2021/07/06 07:26:52;;;;;;;;;;;19.50;99.90;;;;;;5099240;27;20226;-68
2021/07/06 07:29:19;;;;;;;;;;;19.50;99.90;;;;;;5069845;28;19968;-68
2021/07/06 07:31:45;;;;;;;;;;;19.50;99.90;;;;;;5096104;27;20071;-68
2021/07/06 07:34:12;;;;;;;;;;;19.40;99.90;;;;;;5068181;28;20000;-69
2021/07/06 07:36:41;;;;;;;;;;;19.40;99.90;;;;;;5064381;28;19964;-68
2021/07/06 07:39:08;;;;;;;;;;;19.30;99.90;;;;;;5063858;28;20055;-68
2021/07/06 07:41:35;;;;;;;;;;;19.30;99.90;;;;;;5066866;28;19971;-68
2021/07/06 07:44:02;;;;;;;;;;;19.30;99.90;;;;;;5069224;28;19931;-68
2021/07/06 07:46:30;;;;;;;;;;;19.30;99.90;;;;;;5069109;28;20027;-68
2021/07/06 07:48:56;;;;;;;;;;;19.30;99.90;;;;;;5098529;27;19982;-68
2021/07/06 07:51:23;;;;;;;;;;;19.30;99.90;;;;;;5067367;28;20023;-68
2021/07/06 07:53:50;;;;;;;;;;;19.30;99.90;;;;;;5066021;28;20058;-68
2021/07/06 07:56:17;;;;;;;;;;;19.30;99.90;;;;;;5068166;28;19975;-68
2021/07/06 07:58:44;;;;;;;;;;;19.30;99.90;;;;;;5066341;28;20007;-68
2021/07/06 08:01:11;;;;;;;;;;;19.30;99.90;;;;;;5067098;28;19963;-69
2021/07/06 08:03:38;;;;;;;;;;;19.40;99.90;;;;;;5065418;28;19924;-68
2021/07/06 08:06:06;;;;;;;;;;;19.40;99.90;;;;;;5095761;27;21364;-67
2021/07/06 08:08:33;;;;;;;;;;;19.40;99.90;;;;;;5067148;28;20397;-68
2021/07/06 08:11:01;;;;;;;;;;;19.50;99.90;;;;;;5067299;28;20377;-68
2021/07/06 08:13:28;;;;;;;;;;;19.60;99.90;;;;;;5065712;28;19987;-68
2021/07/06 08:15:55;;;;;;;;;;;19.70;99.90;;;;;;5068262;28;20060;-68
2021/07/06 08:18:21;;;;;;;;;;;19.80;99.90;;;;;;5064734;28;20015;-67
2021/07/06 08:20:48;;;;;;;;;;;19.90;99.90;;;;;;5095497;27;19971;-68
2021/07/06 08:23:15;;;;;;;;;;;20.00;99.90;;;;;;5065159;28;19986;-68
2021/07/06 08:25:42;;;;;;;;;;;20.10;99.90;;;;;;5066099;28;20395;-68
2021/07/06 08:28:09;;;;;;;;;;;20.10;99.90;;;;;;5061603;28;20043;-68
2021/07/06 08:30:35;;;;;;;;;;;20.00;99.90;;;;;;5058314;28;20376;-68
2021/07/06 08:33:02;;;;;;;;;;;20.00;99.90;;;;;;5063516;28;20332;-67
2021/07/06 08:35:30;;;;;;;;;;;20.00;99.90;;;;;;5064690;28;19982;-68
2021/07/06 08:37:56;;;;;;;;;;;19.90;99.90;;;;;;5066255;28;19928;-68
2021/07/06 08:40:23;;;;;;;;;;;19.90;99.90;;;;;;5097116;27;19932;-69
2021/07/06 08:42:52;;;;;;;;;;;19.90;99.90;;;;;;5063501;28;20018;-68
2021/07/06 08:45:21;;;;;;;;;;;20.00;99.90;;;;;;5065510;28;20351;-68
2021/07/06 08:47:50;;;;;;;;;;;20.10;99.90;;;;;;5066395;28;20397;-68
2021/07/06 08:50:17;;;;;;;;;;;20.20;99.90;;;;;;5068355;28;19932;-68
2021/07/06 08:52:47;;;;;;;;;;;20.30;99.90;;;;;;5063307;28;20670;-68
2021/07/06 08:55:19;;;;;;;;;;;20.40;99.90;;;;;;5066714;28;20343;-68
2021/07/06 08:57:47;;;;;;;;;;;20.30;99.90;;;;;;5063624;28;20010;-68
2021/07/06 09:00:17;;;;;;;;;;;20.20;99.90;;;;;;5071711;28;20271;-71
2021/07/06 09:03:04;;;;;;;;;;;20.30;99.90;;;;;;5071877;28;20318;-72
2021/07/06 09:05:31;;;;;;;;;;;20.20;99.90;;;;;;5064048;28;19924;-72
2021/07/06 09:07:58;;;;;;;;;;;20.20;99.90;;;;;;5067508;28;20018;-72
2021/07/06 09:10:26;;;;;;;;;;;20.10;99.90;;;;;;5071690;28;20336;-72
2021/07/06 09:12:53;;;;;;;;;;;20.00;99.90;;;;;;5070768;28;19979;-72
2021/07/06 09:15:21;;;;;;;;;;;20.00;99.90;;;;;;5067984;28;19997;-71
2021/07/06 09:18:02;;;;;;;;;;;20.00;99.90;;;;;;5065842;28;19967;-72
2021/07/06 09:20:29;;;;;;;;;;;20.00;99.90;;;;;;5069387;28;20013;-72
2021/07/06 09:23:15;;;;;;;;;;;20.10;99.90;;;;;;5070734;28;19928;-72
2021/07/06 09:25:41;;;;;;;;;;;20.20;99.90;;;;;;5072143;28;19967;-72
2021/07/06 09:28:20;;;;;;;;;;;20.30;99.90;;;;;;5068835;28;19933;-72
2021/07/06 09:30:49;;;;;;;;;;;20.40;99.90;;;;;;5064715;28;19929;-73
2021/07/06 09:33:28;;;;;;;;;;;20.60;99.90;;;;;;5064712;28;19971;-72
2021/07/06 09:35:55;;;;;;;;;;;20.60;99.90;;;;;;5063691;28;19971;-72
2021/07/06 09:38:21;;;;;;;;;;;20.60;99.90;;;;;;5064673;28;19960;-71
2021/07/06 09:40:50;;;;;;;;;;;20.50;99.90;;;;;;5065500;28;19967;-72
2021/07/06 09:43:22;;;;;;;;;;;20.60;99.90;;;;;;5066033;28;19936;-72
2021/07/06 09:45:54;;;;;;;;;;;20.50;99.90;;;;;;5064136;28;19978;-72
2021/07/06 09:48:21;;;;;;;;;;;20.30;99.90;;;;;;5064492;28;19936;-72
2021/07/06 15:10:02;;;;;;;;;;;18.40;99.90;;;;;;4405281;28;20346;-72
2021/07/06 15:12:29;;;;;;;;;;;18.50;99.90;;;;;;5060566;28;19975;-70
2021/07/06 15:14:59;;;;;;;;;;;18.50;99.90;;;;;;5075003;28;20003;-71
2021/07/06 15:17:26;;;;;;;;;;;18.50;99.90;;;;;;5078965;28;20377;-71
2021/07/06 15:19:53;;;;;;;;;;;18.50;99.90;;;;;;5046307;28;20357;-71
2021/07/06 15:22:20;;;;;;;;;;;18.50;99.90;;;;;;5062990;28;19978;-71
2021/07/06 15:24:46;;;;;;;;;;;18.50;99.90;;;;;;5072941;28;19928;-71
2021/07/06 15:27:13;;;;;;;;;;;18.50;99.90;;;;;;5075879;28;20328;-70
2021/07/06 15:29:43;;;;;;;;;;;18.40;99.90;;;;;;5064574;28;19962;-70
2021/07/06 15:32:10;;;;;;;;;;;18.30;99.90;;;;;;5061506;28;20271;-70
2021/07/06 15:34:57;;;;;;;;;;;18.10;99.90;;;;;;5075074;28;19960;-71
2021/07/06 15:37:23;;;;;;;;;;;18.00;99.90;;;;;;5048485;28;20043;-71
2021/07/06 15:39:50;;;;;;;;;;;17.90;99.90;;;;;;5077024;28;20383;-71
2021/07/06 15:42:17;;;;;;;;;;;17.80;99.90;;;;;;5093524;27;20003;-71
2021/07/06 15:44:43;;;;;;;;;;;17.70;99.90;;;;;;5070048;28;19998;-71
2021/07/06 15:47:10;;;;;;;;;;;17.70;99.90;;;;;;5055571;28;20009;-70
2021/07/06 15:49:37;;;;;;;;;;;17.70;99.90;;;;;;5068567;28;19975;-71
2021/07/06 15:52:04;;;;;;;;;;;17.70;99.90;;;;;;5071258;28;19976;-70
2021/07/06 15:54:30;;;;;;;;;;;17.70;99.90;;;;;;5071600;28;20472;-72
2021/07/06 15:56:57;;;;;;;;;;;17.70;99.90;;;;;;5071495;28;20112;-70
2021/07/06 15:59:24;;;;;;;;;;;17.80;99.90;;;;;;5053595;28;19950;-71
2021/07/06 16:01:50;;;;;;;;;;;17.80;99.90;;;;;;5063540;28;20418;-70
2021/07/06 16:04:17;;;;;;;;;;;17.90;99.90;;;;;;5064025;28;20258;-71
2021/07/06 16:06:44;;;;;;;;;;;17.80;99.90;;;;;;5070128;28;20416;-71
2021/07/06 16:09:10;;;;;;;;;;;17.90;99.90;;;;;;5070437;28;19967;-70
2021/07/06 16:11:37;;;;;;;;;;;17.90;99.90;;;;;;5069472;28;19972;-70
2021/07/06 16:14:05;;;;;;;;;;;17.90;99.90;;;;;;5068756;28;20024;-71
2021/07/06 16:16:32;;;;;;;;;;;17.90;99.90;;;;;;5060920;28;20061;-71
2021/07/06 16:18:58;;;;;;;;;;;17.90;99.90;;;;;;5068104;28;19965;-71
2021/07/06 16:21:25;;;;;;;;;;;17.90;99.90;;;;;;5054273;28;20067;-71
2021/07/06 16:23:52;;;;;;;;;;;17.90;99.90;;;;;;5071005;28;20016;-71
2021/07/06 16:26:22;;;;;;;;;;;17.80;99.90;;;;;;5071267;28;20403;-71
2021/07/06 16:28:48;;;;;;;;;;;17.70;99.90;;;;;;5076203;28;20417;-71
2021/07/06 16:31:15;;;;;;;;;;;17.70;99.90;;;;;;5075364;28;20377;-70
2021/07/06 16:33:42;;;;;;;;;;;17.70;99.90;;;;;;5067743;28;20030;-70
2021/07/06 16:36:08;;;;;;;;;;;17.60;99.90;;;;;;5075925;28;20016;-70
2021/07/06 16:38:44;;;;;;;;;;;17.60;99.90;;;;;;5070798;28;19938;-70
2021/07/06 16:41:14;;;;;;;;;;;17.60;99.90;;;;;;5068988;28;21381;-70
2021/07/06 16:43:41;;;;;;;;;;;17.70;99.90;;;;;;5054524;28;19977;-71
2021/07/06 16:46:08;;;;;;;;;;;17.80;99.90;;;;;;5069379;28;19995;-71
2021/07/06 16:48:35;;;;;;;;;;;17.80;99.90;;;;;;5084804;28;19938;-71
2021/07/06 17:58:34;;;;;;;;;;;18.40;99.90;;;;;;5019503;28;19994;-71
2021/07/06 18:01:02;;;;;;;;;;;18.30;99.90;;;;;;5057917;28;19954;-70
2021/07/06 18:03:28;;;;;;;;;;;18.40;99.90;;;;;;5060558;28;20268;-71
2021/07/06 18:05:56;;;;;;;;;;;18.40;99.90;;;;;;5052912;28;20360;-70
2021/07/06 18:08:23;;;;;;;;;;;18.30;99.90;;;;;;5060066;28;19952;-70
2021/07/06 18:10:51;;;;;;;;;;;18.30;99.90;;;;;;5062390;28;19986;-71
2021/07/06 18:13:18;;;;;;;;;;;18.30;99.90;;;;;;5068750;28;20370;-70
2021/07/06 18:15:45;;;;;;;;;;;18.30;99.90;;;;;;5055614;28;19924;-71
2021/07/06 18:18:12;;;;;;;;;;;18.30;99.90;;;;;;5073430;28;19993;-70
2021/07/06 18:20:40;;;;;;;;;;;18.30;99.90;;;;;;5074184;28;19924;-71
2021/07/06 18:23:07;;;;;;;;;;;18.30;99.90;;;;;;5078139;28;20365;-70
2021/07/06 18:25:34;;;;;;;;;;;18.20;99.90;;;;;;5078365;28;19955;-71
2021/07/06 18:28:01;;;;;;;;;;;18.20;99.90;;;;;;5072333;28;19943;-71
2021/07/06 18:30:27;;;;;;;;;;;18.20;99.90;;;;;;5054314;28;20025;-70
2021/07/06 18:32:54;;;;;;;;;;;18.20;99.90;;;;;;5070312;28;20045;-71
2021/07/06 18:35:22;;;;;;;;;;;18.20;99.90;;;;;;5090583;28;20046;-71
2021/07/06 18:37:49;;;;;;;;;;;18.20;99.90;;;;;;5076479;28;20110;-70
2021/07/06 18:40:17;;;;;;;;;;;18.20;99.90;;;;;;5082312;28;19980;-71
2021/07/06 18:42:44;;;;;;;;;;;18.20;99.90;;;;;;5080290;28;20030;-71
2021/07/06 18:45:12;;;;;;;;;;;18.10;99.90;;;;;;5074438;28;19934;-71
2021/07/06 18:47:39;;;;;;;;;;;18.10;99.90;;;;;;5074924;28;20027;-71
2021/07/06 18:50:22;;;;;;;;;;;18.10;99.90;;;;;;5080641;28;20015;-70
2021/07/06 18:52:51;;;;;;;;;;;18.10;99.90;;;;;;5061362;28;19984;-70
2021/07/06 18:55:18;;;;;;;;;;;18.10;99.90;;;;;;5084029;28;19995;-71
2021/07/06 18:57:44;;;;;;;;;;;18.10;99.90;;;;;;5080206;28;19955;-70
2021/07/06 19:00:12;;;;;;;;;;;18.10;99.90;;;;;;5064545;28;19960;-71
2021/07/06 19:02:42;;;;;;;;;;;18.00;99.90;;;;;;5075788;28;19957;-71
2021/07/06 19:05:11;;;;;;;;;;;18.00;99.90;;;;;;5080083;28;19943;-71
2021/07/06 19:07:39;;;;;;;;;;;17.90;99.90;;;;;;5078355;28;19974;-70
2021/07/06 19:10:06;;;;;;;;;;;17.90;99.90;;;;;;5072901;28;19981;-70
2021/07/06 19:12:33;;;;;;;;;;;17.90;99.90;;;;;;5074912;28;20403;-70
2021/07/06 19:15:00;;;;;;;;;;;17.80;99.90;;;;;;5074319;28;19994;-70
2021/07/06 19:17:26;;;;;;;;;;;17.80;99.90;;;;;;5077089;28;20012;-70
2021/07/06 19:19:54;;;;;;;;;;;17.70;99.90;;;;;;5089602;27;19982;-70
2021/07/06 19:22:21;;;;;;;;;;;17.70;99.90;;;;;;5074448;28;20025;-70
2021/07/06 19:24:47;;;;;;;;;;;17.60;99.90;;;;;;5079026;28;19985;-71
2021/07/06 19:27:15;;;;;;;;;;;17.60;99.90;;;;;;5075803;28;19974;-70
2021/07/06 19:32:30;;;;;;;;;;;17.50;99.90;;;;;;5078155;28;20001;-70
2021/07/06 19:34:57;;;;;;;;;;;17.50;99.90;;;;;;5078338;28;19939;-70
2021/07/06 19:37:24;;;;;;;;;;;17.40;99.90;;;;;;5071271;28;19927;-71
2021/07/06 19:39:51;;;;;;;;;;;17.40;99.90;;;;;;5072737;28;20349;-70
2021/07/06 19:42:18;;;;;;;;;;;17.40;99.90;;;;;;5074343;28;20006;-72
2021/07/06 19:44:46;;;;;;;;;;;17.40;99.90;;;;;;5077865;28;20007;-72
2021/07/06 19:47:13;;;;;;;;;;;17.30;99.90;;;;;;5076594;28;19951;-70
2021/07/06 19:49:40;;;;;;;;;;;17.30;99.90;;;;;;5076834;28;20565;-70
2021/07/06 19:52:08;;;;;;;;;;;17.30;99.90;;;;;;5090805;27;20032;-71
2021/07/06 19:54:38;;;;;;;;;;;17.30;99.90;;;;;;5064697;28;20026;-71
2021/07/06 19:57:07;;;;;;;;;;;17.20;99.90;;;;;;5073066;28;20398;-70
2021/07/06 19:59:34;;;;;;;;;;;17.20;99.90;;;;;;5074066;28;19998;-70
2021/07/06 20:02:01;;;;;;;;;;;17.10;99.90;;;;;;5076010;28;20441;-70
2021/07/06 20:04:30;;;;;;;;;;;17.10;99.90;;;;;;5079271;28;20034;-70
2021/07/06 20:06:57;;;;;;;;;;;17.00;99.90;;;;;;5074407;28;19995;-70
2021/07/06 20:09:24;;;;;;;;;;;17.00;99.90;;;;;;5072523;28;20076;-70
2021/07/06 20:11:51;;;;;;;;;;;16.90;99.90;;;;;;5073104;28;20054;-70
2021/07/06 20:14:18;;;;;;;;;;;16.90;99.90;;;;;;5076827;28;20063;-71
2021/07/06 20:16:44;;;;;;;;;;;16.80;99.90;;;;;;5076056;28;20391;-70
2021/07/06 20:19:12;;;;;;;;;;;16.80;99.90;;;;;;5092314;27;20419;-71
2021/07/06 20:21:39;;;;;;;;;;;16.80;99.90;;;;;;5079457;28;19994;-71
2021/07/06 20:24:06;;;;;;;;;;;16.70;99.90;;;;;;5058696;28;21054;-70
2021/07/06 20:26:32;;;;;;;;;;;16.70;99.90;;;;;;5074972;28;19985;-70
2021/07/06 20:28:59;;;;;;;;;;;16.70;99.90;;;;;;5075990;28;20021;-71
2021/07/06 20:31:26;;;;;;;;;;;16.70;99.90;;;;;;5072757;28;20013;-70
2021/07/06 20:33:53;;;;;;;;;;;16.70;99.90;;;;;;5090416;28;20046;-70
2021/07/06 20:36:20;;;;;;;;;;;16.60;99.90;;;;;;5075397;28;20391;-71
2021/07/06 20:38:46;;;;;;;;;;;16.60;99.90;;;;;;5075237;28;19997;-70
2021/07/06 20:41:13;;;;;;;;;;;16.60;99.90;;;;;;5093613;27;19976;-70
2021/07/06 20:43:40;;;;;;;;;;;16.60;99.90;;;;;;5077831;28;20043;-70
2021/07/06 20:46:07;;;;;;;;;;;16.60;99.90;;;;;;5074673;28;19942;-70
2021/07/06 20:48:34;;;;;;;;;;;16.60;99.90;;;;;;5076927;28;19955;-70